Time;durP1;ratioP1;P1;durP2;ratioP2;P2;SDS_P1;SDS_P2;PMS_P1;PMS_P2;Temp;Humidity;BMP_temperature;BMP_pressure;BME280_temperature;BME280_humidity;BME280_pressure;Samples;Min_cycle;Max_cycle;Signal;HPM_P1;HPM_P2
2023/08/10 00:12:44;;;;;;;6.05;2.67;;;;;;;11.52;73.31;100502.69;31096013;28;97228;-72
2023/08/10 00:27:44;;;;;;;6.80;3.20;;;;;;;11.47;73.78;100500.53;31096354;28;97460;-72
2023/08/10 00:42:45;;;;;;;5.22;2.90;;;;;;;11.30;74.30;100510.38;31094854;28;103655;-72
2023/08/10 00:57:45;;;;;;;6.72;3.20;;;;;;;11.44;73.66;100510.69;31093028;28;112444;-72
2023/08/10 01:13:11;;;;;;;4.60;2.90;;;;;;;11.36;73.73;100508.88;31092221;28;97217;-72
2023/08/10 01:28:15;;;;;;;4.43;2.90;;;;;;;11.22;73.78;100520.22;31090237;28;97575;-72
2023/08/10 01:43:15;;;;;;;3.47;2.47;;;;;;;11.02;73.62;100528.53;31088463;28;97306;-72
2023/08/10 01:58:16;;;;;;;7.95;3.10;;;;;;;10.99;74.59;100542.19;31088829;28;97660;-72
2023/08/10 02:13:16;;;;;;;5.40;3.03;;;;;;;10.88;74.86;100548.69;31086055;28;98545;-72
2023/08/10 02:28:17;;;;;;;5.90;3.28;;;;;;;10.94;75.03;100557.84;31084893;28;103902;-72
2023/08/10 02:43:18;;;;;;;6.47;3.00;;;;;;;10.99;75.07;100555.53;31099522;28;96757;-72
2023/08/10 02:58:20;;;;;;;7.20;2.70;;;;;;;11.01;74.89;100556.19;31103637;28;97238;-72
2023/08/10 03:13:20;;;;;;;9.00;3.20;;;;;;;10.71;74.65;100560.28;31101555;28;96721;-72
2023/08/10 03:28:20;;;;;;;8.07;3.50;;;;;;;10.48;75.48;100576.84;31100606;28;107826;-72
2023/08/10 03:43:21;;;;;;;7.35;4.00;;;;;;;10.37;75.77;100599.25;31096119;28;97103;-73
2023/08/10 03:58:21;;;;;;;7.47;3.47;;;;;;;10.32;76.18;100618.34;31097809;28;97490;-71
2023/08/10 04:13:22;;;;;;;8.18;3.55;;;;;;;10.40;75.88;100625.59;31091953;28;97267;-72
2023/08/10 04:28:23;;;;;;;13.05;3.90;;;;;;;10.59;76.82;100629.84;31090643;28;97124;-72
2023/08/10 04:43:23;;;;;;;9.53;4.57;;;;;;;10.92;76.37;100634.47;31088058;28;97325;-72
2023/08/10 04:58:23;;;;;;;8.63;4.22;;;;;;;11.46;76.83;100644.75;31086428;28;97352;-73
2023/08/10 05:13:24;;;;;;;6.13;2.97;;;;;;;12.21;76.55;100645.63;31090990;28;97191;-70
2023/08/10 05:28:25;;;;;;;8.85;2.92;;;;;;;13.12;75.81;100659.47;31087497;28;97390;-71
2023/08/10 05:43:25;;;;;;;3.67;2.13;;;;;;;13.98;74.33;100648.69;31083625;28;96784;-72
2023/08/10 05:58:25;;;;;;;4.85;1.75;;;;;;;15.02;72.99;100664.00;31088163;28;96736;-76
2023/08/10 06:13:26;;;;;;;5.40;2.58;;;;;;;16.00;71.05;100666.25;31083662;28;96753;-72
2023/08/10 06:28:26;;;;;;;9.27;2.25;;;;;;;16.96;68.29;100675.56;30958365;28;97334;-80
2023/08/10 06:43:27;;;;;;;7.32;1.80;;;;;;;17.78;66.03;100676.38;30983428;28;97224;-81
2023/08/10 06:58:28;;;;;;;3.22;1.67;;;;;;;18.51;62.53;100678.25;31072737;28;97293;-75
2023/08/10 07:13:29;;;;;;;8.10;1.88;;;;;;;19.57;59.58;100689.69;31084175;28;97119;-79
2023/08/10 07:28:29;;;;;;;;;;;;;;;20.38;56.64;100689.88;31096577;28;97200;-77
2023/08/10 07:43:30;;;;;;;3.65;1.38;;;;;;;21.35;54.00;100692.94;31099149;28;97518;-76
2023/08/10 07:58:31;;;;;;;5.67;2.77;;;;;;;21.92;50.12;100692.56;31094954;28;97425;-80
2023/08/10 08:13:33;;;;;;;3.75;1.55;;;;;;;22.88;46.96;100695.03;31092087;28;107060;-73
2023/08/10 08:28:33;;;;;;;3.57;1.10;;;;;;;22.40;45.12;100709.72;31091485;28;97318;-75
2023/08/10 08:43:35;;;;;;;3.80;1.02;;;;;;;24.41;42.58;100697.19;31088458;28;97016;-76
2023/08/10 08:58:36;;;;;;;5.53;1.60;;;;;;;25.00;39.63;100694.75;31087658;28;97205;-75
2023/08/10 09:13:36;;;;;;;3.65;1.20;;;;;;;26.66;36.42;100691.53;31086952;28;97593;-75
2023/08/10 09:28:37;;;;;;;1.77;0.77;;;;;;;28.25;32.99;100685.53;31086243;28;97340;-70
2023/08/10 09:43:43;;;;;;;3.37;0.83;;;;;;;28.24;32.47;100683.94;31094972;28;97081;-74
2023/08/10 09:58:44;;;;;;;2.70;1.07;;;;;;;28.50;31.39;100689.31;31097585;28;96774;-72
2023/08/10 10:13:45;;;;;;;2.20;1.08;;;;;;;27.23;31.38;100673.44;31087323;28;97660;-67
2023/08/10 10:29:06;;;;;;;2.05;0.95;;;;;;;27.12;30.57;100663.56;31081738;28;97838;-76
2023/08/10 10:44:08;;;;;;;3.17;1.13;;;;;;;28.24;28.26;100656.53;31086743;28;97899;-74
2023/08/10 10:59:08;;;;;;;0.90;0.57;;;;;;;28.54;27.34;100649.31;31092098;28;97233;-74
2023/08/10 11:14:10;;;;;;;1.60;0.50;;;;;;;30.11;26.02;100637.88;31106253;28;97581;-76
2023/08/10 11:29:10;;;;;;;4.17;1.60;;;;;;;28.86;24.80;100643.44;31109932;28;97712;-73
2023/08/10 11:44:32;;;;;;;3.40;1.25;;;;;;;27.98;26.62;100634.66;31099678;28;97378;-72
2023/08/10 11:59:35;;;;;;;1.63;0.70;;;;;;;26.18;28.48;100647.84;31094603;28;97168;-82
2023/08/10 12:14:35;;;;;;;2.20;0.70;;;;;;;25.39;29.91;100647.47;31164717;28;98882;-74
2023/08/10 12:29:35;;;;;;;5.43;1.23;;;;;;;24.95;30.84;100640.16;31088003;28;104146;-75
2023/08/10 12:44:36;;;;;;;2.85;1.00;;;;;;;24.64;31.22;100634.34;31094414;28;105211;-74
2023/08/10 12:59:36;;;;;;;4.25;1.10;;;;;;;24.55;31.52;100632.28;31094660;28;97201;-70
2023/08/10 13:14:38;;;;;;;5.03;1.70;;;;;;;25.02;30.88;100637.25;31089939;28;97956;-71
2023/08/10 13:29:38;;;;;;;10.03;4.73;;;;;;;24.30;31.86;100639.88;31081613;28;97301;-71
2023/08/10 13:44:39;;;;;;;1.05;0.50;;;;;;;25.51;30.64;100637.22;31083724;28;109491;-71
2023/08/10 13:59:39;;;;;;;0.82;0.60;;;;;;;26.57;29.46;100625.63;31083576;28;96782;-71
2023/08/10 14:14:39;;;;;;;3.75;1.10;;;;;;;26.97;28.65;100606.94;31081113;28;96806;-71
2023/08/10 14:29:40;;;;;;;1.45;0.85;;;;;;;25.87;29.56;100612.13;31082201;28;99307;-71
2023/08/10 14:44:40;;;;;;;4.57;1.05;;;;;;;24.60;30.95;100608.66;31100599;28;107697;-71
2023/08/10 14:59:42;;;;;;;2.70;0.70;;;;;;;23.93;32.38;100606.94;31101911;28;102373;-71
2023/08/10 15:14:42;;;;;;;1.63;0.80;;;;;;;23.91;32.07;100609.09;31098925;28;97178;-70
2023/08/10 15:29:43;;;;;;;3.08;0.70;;;;;;;22.76;33.52;100599.19;31090226;28;96998;-69
2023/08/10 15:44:43;;;;;;;;;;;;;;;22.58;34.33;100601.00;31090884;28;104732;-71
2023/08/10 15:59:43;;;;;;;2.30;1.00;;;;;;;22.69;34.70;100604.75;31094046;28;97646;-70
2023/08/10 16:14:44;;;;;;;3.13;0.95;;;;;;;22.95;34.26;100614.22;31093691;28;96767;-70
2023/08/10 16:29:47;;;;;;;2.60;0.90;;;;;;;22.92;34.32;100605.72;31091901;28;97179;-70
2023/08/10 16:44:47;;;;;;;1.87;1.07;;;;;;;22.06;35.40;100611.75;31088828;28;97415;-70
2023/08/10 16:59:48;;;;;;;1.37;0.90;;;;;;;21.38;36.50;100622.03;31086489;28;110166;-70
2023/08/10 17:14:48;;;;;;;3.20;0.93;;;;;;;20.99;37.55;100619.66;31087353;28;113410;-70
2023/08/10 17:29:51;;;;;;;2.70;0.80;;;;;;;20.89;38.18;100625.63;31088182;28;102128;-70
2023/08/10 17:44:54;;;;;;;1.80;1.07;;;;;;;20.41;40.00;100626.38;31084399;28;97537;-70
2023/08/10 17:59:54;;;;;;;3.87;1.20;;;;;;;19.88;41.91;100642.06;31084750;28;97356;-71
2023/08/10 18:14:55;;;;;;;7.23;2.93;;;;;;;19.44;44.20;100641.13;31080935;28;97130;-70
2023/08/10 18:29:55;;;;;;;10.82;2.80;;;;;;;19.00;46.30;100651.75;31080810;28;96796;-70
2023/08/10 18:44:55;;;;;;;8.85;3.17;;;;;;;18.50;48.08;100670.38;31077764;28;108467;-71
2023/08/10 18:59:56;;;;;;;7.10;2.20;;;;;;;17.97;49.09;100684.72;31076310;28;97063;-71
2023/08/10 19:14:57;;;;;;;6.25;3.05;;;;;;;17.30;50.81;100680.00;31066891;28;97775;-71
2023/08/10 19:29:57;;;;;;;9.02;3.50;;;;;;;16.77;52.07;100675.22;31081899;28;97750;-71
2023/08/10 19:44:58;;;;;;;8.10;4.10;;;;;;;16.43;52.92;100684.97;31088588;28;98691;-70
2023/08/10 19:59:58;;;;;;;6.30;2.77;;;;;;;16.14;53.40;100683.31;31089123;28;97110;-71
2023/08/10 20:14:59;;;;;;;4.90;2.03;;;;;;;15.78;54.05;100690.41;31085912;28;97239;-71
2023/08/10 20:29:59;;;;;;;5.97;2.55;;;;;;;15.56;55.40;100686.91;31085379;28;96854;-71
2023/08/10 20:45:00;;;;;;;4.10;2.10;;;;;;;15.28;56.22;100681.41;31084661;28;96751;-71
2023/08/10 21:00:00;;;;;;;3.88;2.05;;;;;;;15.00;57.12;100679.47;31080877;28;97669;-69
2023/08/10 21:15:07;;;;;;;6.45;2.30;;;;;;;14.87;57.88;100685.47;31089992;28;98198;-70
2023/08/10 21:30:07;;;;;;;6.00;2.80;;;;;;;14.76;58.28;100678.72;31090011;28;96872;-70
2023/08/10 21:45:08;;;;;;;5.90;1.95;;;;;;;14.65;58.93;100687.22;31086450;28;97612;-70
2023/08/10 22:00:14;;;;;;;4.20;2.22;;;;;;;14.63;59.33;100691.97;31086622;28;96742;-70
2023/08/10 22:15:14;;;;;;;5.17;2.10;;;;;;;14.41;59.97;100696.34;31084799;28;97282;-70
2023/08/10 22:30:14;;;;;;;8.80;2.05;;;;;;;14.09;60.77;100687.59;31084036;28;97177;-70
2023/08/10 22:45:15;;;;;;;6.35;1.77;;;;;;;13.76;61.63;100701.25;31082649;28;110160;-71
2023/08/10 23:00:16;;;;;;;8.13;2.83;;;;;;;13.55;62.21;100689.34;31098681;28;96748;-71
2023/08/10 23:15:17;;;;;;;4.10;1.80;;;;;;;13.34;63.24;100684.59;31103092;28;97485;-70
2023/08/10 23:30:18;;;;;;;3.50;2.13;;;;;;;13.33;63.96;100680.28;31102189;28;97253;-70
2023/08/10 23:45:18;;;;;;;5.28;2.30;;;;;;;13.39;64.13;100678.75;31099559;28;97692;-69
